sensor_id;sensor_type;location;lat;lon;timestamp;P1;durP1;ratioP1;P2;durP2;ratioP2
14358;SDS011;7263;49.418;11.064;2023-02-23T00:01:08;9.37;;;6.00;;
14358;SDS011;7263;49.418;11.064;2023-02-23T00:03:36;7.23;;;5.70;;
14358;SDS011;7263;49.418;11.064;2023-02-23T00:06:04;8.37;;;5.63;;
14358;SDS011;7263;49.418;11.064;2023-02-23T00:08:32;5.77;;;5.17;;
14358;SDS011;7263;49.418;11.064;2023-02-23T00:11:01;5.77;;;5.17;;
14358;SDS011;7263;49.418;11.064;2023-02-23T00:13:29;8.53;;;5.50;;
14358;SDS011;7263;49.418;11.064;2023-02-23T00:15:57;6.30;;;5.33;;
14358;SDS011;7263;49.418;11.064;2023-02-23T00:18:23;6.80;;;5.57;;
14358;SDS011;7263;49.418;11.064;2023-02-23T00:20:54;6.20;;;5.60;;
14358;SDS011;7263;49.418;11.064;2023-02-23T00:23:22;6.83;;;5.50;;
14358;SDS011;7263;49.418;11.064;2023-02-23T00:25:51;7.93;;;5.40;;
14358;SDS011;7263;49.418;11.064;2023-02-23T00:28:19;6.57;;;5.77;;
14358;SDS011;7263;49.418;11.064;2023-02-23T00:30:46;6.97;;;5.83;;
14358;SDS011;7263;49.418;11.064;2023-02-23T00:33:13;6.43;;;5.20;;
14358;SDS011;7263;49.418;11.064;2023-02-23T00:35:40;7.23;;;4.93;;
14358;SDS011;7263;49.418;11.064;2023-02-23T00:38:07;7.73;;;5.60;;
14358;SDS011;7263;49.418;11.064;2023-02-23T00:40:33;6.70;;;5.53;;
14358;SDS011;7263;49.418;11.064;2023-02-23T00:43:00;6.40;;;5.40;;
14358;SDS011;7263;49.418;11.064;2023-02-23T00:45:28;7.70;;;6.10;;
14358;SDS011;7263;49.418;11.064;2023-02-23T00:47:55;10.53;;;6.33;;
14358;SDS011;7263;49.418;11.064;2023-02-23T00:50:22;7.10;;;6.03;;
14358;SDS011;7263;49.418;11.064;2023-02-23T00:52:49;9.33;;;6.50;;
14358;SDS011;7263;49.418;11.064;2023-02-23T00:55:16;7.53;;;6.37;;
14358;SDS011;7263;49.418;11.064;2023-02-23T00:57:43;7.00;;;6.10;;
14358;SDS011;7263;49.418;11.064;2023-02-23T01:00:10;7.90;;;6.50;;
14358;SDS011;7263;49.418;11.064;2023-02-23T01:02:46;7.77;;;6.03;;
14358;SDS011;7263;49.418;11.064;2023-02-23T01:05:13;6.47;;;5.57;;
14358;SDS011;7263;49.418;11.064;2023-02-23T01:07:41;6.67;;;5.73;;
14358;SDS011;7263;49.418;11.064;2023-02-23T01:10:10;7.63;;;5.57;;
14358;SDS011;7263;49.418;11.064;2023-02-23T01:12:45;7.13;;;5.83;;
14358;SDS011;7263;49.418;11.064;2023-02-23T01:15:13;6.70;;;5.77;;
14358;SDS011;7263;49.418;11.064;2023-02-23T01:17:40;7.33;;;5.63;;
14358;SDS011;7263;49.418;11.064;2023-02-23T01:20:09;8.30;;;6.23;;
14358;SDS011;7263;49.418;11.064;2023-02-23T01:22:42;7.87;;;5.87;;
14358;SDS011;7263;49.418;11.064;2023-02-23T01:25:09;9.43;;;6.17;;
14358;SDS011;7263;49.418;11.064;2023-02-23T01:27:36;9.00;;;6.13;;
14358;SDS011;7263;49.418;11.064;2023-02-23T01:30:03;10.17;;;7.50;;
14358;SDS011;7263;49.418;11.064;2023-02-23T01:32:33;7.40;;;6.70;;
14358;SDS011;7263;49.418;11.064;2023-02-23T01:35:00;7.70;;;6.17;;
14358;SDS011;7263;49.418;11.064;2023-02-23T01:37:29;7.23;;;6.43;;
14358;SDS011;7263;49.418;11.064;2023-02-23T01:39:59;6.93;;;5.90;;
14358;SDS011;7263;49.418;11.064;2023-02-23T01:42:28;6.70;;;5.93;;
14358;SDS011;7263;49.418;11.064;2023-02-23T01:47:54;7.67;;;6.03;;
14358;SDS011;7263;49.418;11.064;2023-02-23T01:50:26;8.00;;;6.27;;
14358;SDS011;7263;49.418;11.064;2023-02-23T01:52:57;7.13;;;5.83;;
14358;SDS011;7263;49.418;11.064;2023-02-23T01:55:25;9.83;;;6.77;;
14358;SDS011;7263;49.418;11.064;2023-02-23T01:57:55;8.30;;;6.63;;
14358;SDS011;7263;49.418;11.064;2023-02-23T02:00:27;7.57;;;6.03;;
14358;SDS011;7263;49.418;11.064;2023-02-23T02:02:56;9.33;;;6.93;;
14358;SDS011;7263;49.418;11.064;2023-02-23T02:05:25;8.97;;;6.77;;
14358;SDS011;7263;49.418;11.064;2023-02-23T02:07:53;7.97;;;6.77;;
14358;SDS011;7263;49.418;11.064;2023-02-23T02:10:25;8.23;;;7.07;;
14358;SDS011;7263;49.418;11.064;2023-02-23T02:13:08;7.70;;;6.47;;
14358;SDS011;7263;49.418;11.064;2023-02-23T02:15:40;8.87;;;7.37;;
14358;SDS011;7263;49.418;11.064;2023-02-23T02:18:18;8.67;;;7.07;;
14358;SDS011;7263;49.418;11.064;2023-02-23T02:21:13;10.27;;;8.00;;
14358;SDS011;7263;49.418;11.064;2023-02-23T02:24:10;12.27;;;8.07;;
14358;SDS011;7263;49.418;11.064;2023-02-23T02:27:04;9.63;;;7.87;;
14358;SDS011;7263;49.418;11.064;2023-02-23T02:32:47;9.03;;;7.30;;
14358;SDS011;7263;49.418;11.064;2023-02-23T02:38:36;9.40;;;7.27;;
14358;SDS011;7263;49.418;11.064;2023-02-23T02:41:18;7.90;;;7.10;;
14358;SDS011;7263;49.418;11.064;2023-02-23T02:43:50;8.67;;;7.00;;
14358;SDS011;7263;49.418;11.064;2023-02-23T02:46:24;8.17;;;7.27;;
14358;SDS011;7263;49.418;11.064;2023-02-23T02:48:55;9.67;;;7.17;;
14358;SDS011;7263;49.418;11.064;2023-02-23T02:51:31;9.10;;;7.43;;
14358;SDS011;7263;49.418;11.064;2023-02-23T02:54:06;8.63;;;6.57;;
14358;SDS011;7263;49.418;11.064;2023-02-23T02:56:40;10.43;;;8.03;;
14358;SDS011;7263;49.418;11.064;2023-02-23T02:59:11;9.27;;;7.90;;
14358;SDS011;7263;49.418;11.064;2023-02-23T03:01:57;9.83;;;8.47;;
14358;SDS011;7263;49.418;11.064;2023-02-23T03:04:41;8.37;;;7.53;;
14358;SDS011;7263;49.418;11.064;2023-02-23T03:07:28;9.10;;;6.80;;
14358;SDS011;7263;49.418;11.064;2023-02-23T03:10:26;8.97;;;7.40;;
14358;SDS011;7263;49.418;11.064;2023-02-23T03:13:22;9.70;;;8.40;;
14358;SDS011;7263;49.418;11.064;2023-02-23T03:16:19;9.67;;;7.43;;
14358;SDS011;7263;49.418;11.064;2023-02-23T03:19:12;12.30;;;7.57;;
14358;SDS011;7263;49.418;11.064;2023-02-23T03:22:00;8.73;;;7.83;;
14358;SDS011;7263;49.418;11.064;2023-02-23T03:24:55;8.47;;;7.57;;
14358;SDS011;7263;49.418;11.064;2023-02-23T03:27:46;9.23;;;8.30;;
14358;SDS011;7263;49.418;11.064;2023-02-23T03:30:38;9.03;;;8.13;;
14358;SDS011;7263;49.418;11.064;2023-02-23T03:33:30;9.47;;;8.17;;
14358;SDS011;7263;49.418;11.064;2023-02-23T03:36:21;8.63;;;7.70;;
14358;SDS011;7263;49.418;11.064;2023-02-23T03:39:10;9.43;;;7.97;;
14358;SDS011;7263;49.418;11.064;2023-02-23T03:42:01;8.43;;;7.63;;
14358;SDS011;7263;49.418;11.064;2023-02-23T03:44:49;12.23;;;9.90;;
14358;SDS011;7263;49.418;11.064;2023-02-23T03:47:37;11.53;;;9.57;;
14358;SDS011;7263;49.418;11.064;2023-02-23T03:50:25;11.30;;;8.90;;
14358;SDS011;7263;49.418;11.064;2023-02-23T03:53:14;11.03;;;9.00;;
14358;SDS011;7263;49.418;11.064;2023-02-23T03:56:03;11.93;;;9.00;;
14358;SDS011;7263;49.418;11.064;2023-02-23T03:58:52;10.63;;;8.33;;
14358;SDS011;7263;49.418;11.064;2023-02-23T04:01:43;10.00;;;7.57;;
14358;SDS011;7263;49.418;11.064;2023-02-23T04:04:28;10.83;;;8.27;;
14358;SDS011;7263;49.418;11.064;2023-02-23T04:07:15;9.90;;;8.67;;
14358;SDS011;7263;49.418;11.064;2023-02-23T04:10:01;13.03;;;9.23;;
14358;SDS011;7263;49.418;11.064;2023-02-23T04:12:50;14.33;;;9.73;;
14358;SDS011;7263;49.418;11.064;2023-02-23T04:15:39;12.67;;;9.60;;
14358;SDS011;7263;49.418;11.064;2023-02-23T04:18:10;12.87;;;10.00;;
14358;SDS011;7263;49.418;11.064;2023-02-23T04:20:39;12.20;;;9.93;;
14358;SDS011;7263;49.418;11.064;2023-02-23T04:23:06;13.27;;;10.20;;
14358;SDS011;7263;49.418;11.064;2023-02-23T04:25:33;13.97;;;10.53;;
14358;SDS011;7263;49.418;11.064;2023-02-23T04:28:00;11.63;;;9.77;;
14358;SDS011;7263;49.418;11.064;2023-02-23T04:30:27;11.90;;;9.30;;
14358;SDS011;7263;49.418;11.064;2023-02-23T04:32:54;14.20;;;10.70;;
14358;SDS011;7263;49.418;11.064;2023-02-23T04:35:24;13.27;;;10.40;;
14358;SDS011;7263;49.418;11.064;2023-02-23T04:37:52;12.10;;;10.67;;
14358;SDS011;7263;49.418;11.064;2023-02-23T04:40:19;14.40;;;12.00;;
14358;SDS011;7263;49.418;11.064;2023-02-23T04:42:46;13.47;;;11.50;;
14358;SDS011;7263;49.418;11.064;2023-02-23T04:45:13;13.20;;;11.80;;
14358;SDS011;7263;49.418;11.064;2023-02-23T04:47:40;14.50;;;11.93;;
14358;SDS011;7263;49.418;11.064;2023-02-23T04:50:07;14.53;;;11.50;;
14358;SDS011;7263;49.418;11.064;2023-02-23T04:52:36;14.57;;;11.93;;
14358;SDS011;7263;49.418;11.064;2023-02-23T04:55:04;14.67;;;12.27;;
14358;SDS011;7263;49.418;11.064;2023-02-23T04:57:32;15.67;;;11.37;;
14358;SDS011;7263;49.418;11.064;2023-02-23T04:59:59;15.20;;;11.73;;
14358;SDS011;7263;49.418;11.064;2023-02-23T05:02:26;15.80;;;11.77;;
14358;SDS011;7263;49.418;11.064;2023-02-23T05:04:53;14.63;;;12.93;;
14358;SDS011;7263;49.418;11.064;2023-02-23T05:07:19;17.33;;;12.67;;
14358;SDS011;7263;49.418;11.064;2023-02-23T05:09:48;17.37;;;13.30;;
14358;SDS011;7263;49.418;11.064;2023-02-23T05:12:15;16.90;;;13.60;;
14358;SDS011;7263;49.418;11.064;2023-02-23T05:14:41;15.47;;;12.57;;
14358;SDS011;7263;49.418;11.064;2023-02-23T05:17:08;16.37;;;13.23;;
14358;SDS011;7263;49.418;11.064;2023-02-23T05:19:35;14.50;;;11.93;;
14358;SDS011;7263;49.418;11.064;2023-02-23T05:22:02;14.10;;;12.20;;
14358;SDS011;7263;49.418;11.064;2023-02-23T05:24:29;15.33;;;11.90;;
14358;SDS011;7263;49.418;11.064;2023-02-23T05:26:57;14.87;;;11.73;;
14358;SDS011;7263;49.418;11.064;2023-02-23T05:29:24;15.77;;;12.43;;
14358;SDS011;7263;49.418;11.064;2023-02-23T05:31:51;17.13;;;13.23;;
14358;SDS011;7263;49.418;11.064;2023-02-23T05:34:17;19.30;;;14.57;;
14358;SDS011;7263;49.418;11.064;2023-02-23T05:36:44;20.77;;;17.23;;
14358;SDS011;7263;49.418;11.064;2023-02-23T05:39:11;18.53;;;15.13;;
14358;SDS011;7263;49.418;11.064;2023-02-23T05:41:38;18.23;;;14.20;;
14358;SDS011;7263;49.418;11.064;2023-02-23T05:44:06;15.60;;;13.53;;
14358;SDS011;7263;49.418;11.064;2023-02-23T05:46:33;19.57;;;14.80;;
14358;SDS011;7263;49.418;11.064;2023-02-23T05:49:00;18.77;;;15.30;;
14358;SDS011;7263;49.418;11.064;2023-02-23T05:51:27;19.53;;;15.10;;
14358;SDS011;7263;49.418;11.064;2023-02-23T05:53:55;19.23;;;14.67;;
14358;SDS011;7263;49.418;11.064;2023-02-23T05:56:22;18.33;;;14.60;;
14358;SDS011;7263;49.418;11.064;2023-02-23T05:58:50;20.90;;;15.43;;
14358;SDS011;7263;49.418;11.064;2023-02-23T06:01:21;23.20;;;15.53;;
14358;SDS011;7263;49.418;11.064;2023-02-23T06:03:48;21.10;;;15.60;;
14358;SDS011;7263;49.418;11.064;2023-02-23T06:06:15;20.27;;;16.80;;
14358;SDS011;7263;49.418;11.064;2023-02-23T06:08:42;21.87;;;16.60;;
14358;SDS011;7263;49.418;11.064;2023-02-23T06:11:09;18.80;;;15.27;;
14358;SDS011;7263;49.418;11.064;2023-02-23T06:13:36;19.77;;;16.47;;
14358;SDS011;7263;49.418;11.064;2023-02-23T06:16:04;17.13;;;15.00;;
14358;SDS011;7263;49.418;11.064;2023-02-23T06:18:33;21.20;;;16.67;;
14358;SDS011;7263;49.418;11.064;2023-02-23T06:21:00;21.80;;;15.97;;
14358;SDS011;7263;49.418;11.064;2023-02-23T06:23:28;21.33;;;15.57;;
14358;SDS011;7263;49.418;11.064;2023-02-23T06:25:56;20.73;;;15.57;;
14358;SDS011;7263;49.418;11.064;2023-02-23T06:28:23;21.17;;;16.70;;
14358;SDS011;7263;49.418;11.064;2023-02-23T06:30:50;18.87;;;15.33;;
14358;SDS011;7263;49.418;11.064;2023-02-23T06:33:18;21.03;;;15.63;;
14358;SDS011;7263;49.418;11.064;2023-02-23T06:35:46;19.77;;;16.17;;
14358;SDS011;7263;49.418;11.064;2023-02-23T06:38:14;24.50;;;17.17;;
14358;SDS011;7263;49.418;11.064;2023-02-23T06:40:40;20.17;;;16.57;;
14358;SDS011;7263;49.418;11.064;2023-02-23T06:43:08;20.83;;;16.77;;
14358;SDS011;7263;49.418;11.064;2023-02-23T06:45:34;19.90;;;15.23;;
14358;SDS011;7263;49.418;11.064;2023-02-23T06:48:01;23.57;;;16.77;;
14358;SDS011;7263;49.418;11.064;2023-02-23T06:50:29;22.07;;;16.57;;
14358;SDS011;7263;49.418;11.064;2023-02-23T06:52:57;21.10;;;16.73;;
14358;SDS011;7263;49.418;11.064;2023-02-23T06:55:24;23.60;;;16.77;;
14358;SDS011;7263;49.418;11.064;2023-02-23T06:57:51;18.93;;;15.90;;
14358;SDS011;7263;49.418;11.064;2023-02-23T07:00:18;23.53;;;16.80;;
14358;SDS011;7263;49.418;11.064;2023-02-23T07:02:46;20.33;;;15.43;;
14358;SDS011;7263;49.418;11.064;2023-02-23T07:05:13;20.07;;;15.93;;
14358;SDS011;7263;49.418;11.064;2023-02-23T07:07:40;21.23;;;16.17;;
14358;SDS011;7263;49.418;11.064;2023-02-23T07:10:09;20.73;;;16.83;;
14358;SDS011;7263;49.418;11.064;2023-02-23T07:12:36;21.47;;;17.47;;
14358;SDS011;7263;49.418;11.064;2023-02-23T07:15:03;20.67;;;17.03;;
14358;SDS011;7263;49.418;11.064;2023-02-23T07:17:31;19.27;;;16.10;;
14358;SDS011;7263;49.418;11.064;2023-02-23T07:19:57;23.23;;;16.40;;
14358;SDS011;7263;49.418;11.064;2023-02-23T07:22:24;24.03;;;17.73;;
14358;SDS011;7263;49.418;11.064;2023-02-23T07:24:53;21.23;;;17.33;;
14358;SDS011;7263;49.418;11.064;2023-02-23T07:27:21;33.00;;;26.30;;
14358;SDS011;7263;49.418;11.064;2023-02-23T07:29:48;29.33;;;22.67;;
14358;SDS011;7263;49.418;11.064;2023-02-23T07:32:15;27.70;;;22.60;;
14358;SDS011;7263;49.418;11.064;2023-02-23T07:34:41;36.10;;;28.43;;
14358;SDS011;7263;49.418;11.064;2023-02-23T07:37:09;32.70;;;26.80;;
14358;SDS011;7263;49.418;11.064;2023-02-23T07:39:36;27.60;;;21.97;;
14358;SDS011;7263;49.418;11.064;2023-02-23T07:42:03;34.00;;;25.80;;
14358;SDS011;7263;49.418;11.064;2023-02-23T07:44:31;25.77;;;18.67;;
14358;SDS011;7263;49.418;11.064;2023-02-23T07:46:58;23.97;;;19.83;;
14358;SDS011;7263;49.418;11.064;2023-02-23T07:49:25;28.17;;;20.90;;
14358;SDS011;7263;49.418;11.064;2023-02-23T07:51:51;24.27;;;19.40;;
14358;SDS011;7263;49.418;11.064;2023-02-23T07:54:18;30.17;;;22.47;;
14358;SDS011;7263;49.418;11.064;2023-02-23T07:56:45;29.40;;;24.03;;
14358;SDS011;7263;49.418;11.064;2023-02-23T07:59:12;102.63;;;71.63;;
14358;SDS011;7263;49.418;11.064;2023-02-23T08:01:40;24.23;;;20.13;;
14358;SDS011;7263;49.418;11.064;2023-02-23T08:04:07;37.90;;;33.10;;
14358;SDS011;7263;49.418;11.064;2023-02-23T08:06:34;26.87;;;21.37;;
14358;SDS011;7263;49.418;11.064;2023-02-23T08:09:02;27.77;;;22.17;;
14358;SDS011;7263;49.418;11.064;2023-02-23T08:11:29;25.70;;;20.80;;
14358;SDS011;7263;49.418;11.064;2023-02-23T08:13:56;25.30;;;19.23;;
14358;SDS011;7263;49.418;11.064;2023-02-23T08:16:24;24.67;;;21.17;;
14358;SDS011;7263;49.418;11.064;2023-02-23T08:18:53;25.57;;;19.43;;
14358;SDS011;7263;49.418;11.064;2023-02-23T08:21:22;25.83;;;20.00;;
14358;SDS011;7263;49.418;11.064;2023-02-23T08:23:49;25.33;;;19.90;;
14358;SDS011;7263;49.418;11.064;2023-02-23T08:26:16;24.03;;;19.63;;
14358;SDS011;7263;49.418;11.064;2023-02-23T08:28:42;26.77;;;20.43;;
14358;SDS011;7263;49.418;11.064;2023-02-23T08:31:10;24.20;;;19.57;;
14358;SDS011;7263;49.418;11.064;2023-02-23T08:33:37;24.43;;;19.03;;
14358;SDS011;7263;49.418;11.064;2023-02-23T08:36:07;23.27;;;18.93;;
14358;SDS011;7263;49.418;11.064;2023-02-23T08:38:34;28.03;;;19.50;;
14358;SDS011;7263;49.418;11.064;2023-02-23T08:41:01;23.97;;;19.37;;
14358;SDS011;7263;49.418;11.064;2023-02-23T08:43:28;22.63;;;18.43;;
14358;SDS011;7263;49.418;11.064;2023-02-23T08:45:55;23.33;;;19.30;;
14358;SDS011;7263;49.418;11.064;2023-02-23T08:48:22;23.50;;;19.17;;
14358;SDS011;7263;49.418;11.064;2023-02-23T08:50:50;25.03;;;19.03;;
14358;SDS011;7263;49.418;11.064;2023-02-23T08:56:44;25.50;;;19.20;;
14358;SDS011;7263;49.418;11.064;2023-02-23T08:59:11;27.63;;;19.17;;
14358;SDS011;7263;49.418;11.064;2023-02-23T09:01:39;24.43;;;18.90;;
14358;SDS011;7263;49.418;11.064;2023-02-23T09:04:06;27.47;;;19.77;;
14358;SDS011;7263;49.418;11.064;2023-02-23T09:06:33;31.23;;;19.03;;
14358;SDS011;7263;49.418;11.064;2023-02-23T09:09:00;26.47;;;18.50;;
14358;SDS011;7263;49.418;11.064;2023-02-23T09:11:27;27.13;;;19.20;;
14358;SDS011;7263;49.418;11.064;2023-02-23T09:13:55;24.17;;;18.53;;
14358;SDS011;7263;49.418;11.064;2023-02-23T09:16:22;26.13;;;18.17;;
14358;SDS011;7263;49.418;11.064;2023-02-23T09:18:49;28.20;;;19.00;;
14358;SDS011;7263;49.418;11.064;2023-02-23T09:21:16;25.27;;;19.00;;
14358;SDS011;7263;49.418;11.064;2023-02-23T09:23:49;30.73;;;19.70;;
14358;SDS011;7263;49.418;11.064;2023-02-23T09:26:18;23.37;;;19.80;;
14358;SDS011;7263;49.418;11.064;2023-02-23T09:28:45;28.77;;;19.87;;
14358;SDS011;7263;49.418;11.064;2023-02-23T09:31:14;26.97;;;19.67;;
14358;SDS011;7263;49.418;11.064;2023-02-23T09:33:42;24.57;;;20.07;;
14358;SDS011;7263;49.418;11.064;2023-02-23T09:36:09;29.20;;;20.23;;
14358;SDS011;7263;49.418;11.064;2023-02-23T09:38:40;29.90;;;21.13;;
14358;SDS011;7263;49.418;11.064;2023-02-23T09:41:08;29.57;;;21.60;;
14358;SDS011;7263;49.418;11.064;2023-02-23T09:44:00;25.33;;;20.53;;
14358;SDS011;7263;49.418;11.064;2023-02-23T09:46:31;30.87;;;21.97;;
14358;SDS011;7263;49.418;11.064;2023-02-23T09:49:03;27.23;;;21.87;;
14358;SDS011;7263;49.418;11.064;2023-02-23T09:51:37;28.97;;;20.53;;
14358;SDS011;7263;49.418;11.064;2023-02-23T09:54:10;26.17;;;20.30;;
14358;SDS011;7263;49.418;11.064;2023-02-23T09:56:39;26.60;;;20.63;;
14358;SDS011;7263;49.418;11.064;2023-02-23T09:59:11;23.60;;;19.50;;
14358;SDS011;7263;49.418;11.064;2023-02-23T10:01:58;25.30;;;20.30;;
14358;SDS011;7263;49.418;11.064;2023-02-23T10:04:37;24.23;;;20.33;;
14358;SDS011;7263;49.418;11.064;2023-02-23T10:07:11;26.63;;;19.67;;
14358;SDS011;7263;49.418;11.064;2023-02-23T10:09:44;23.50;;;19.33;;
14358;SDS011;7263;49.418;11.064;2023-02-23T10:12:20;26.90;;;19.27;;
14358;SDS011;7263;49.418;11.064;2023-02-23T10:14:55;22.43;;;19.07;;
14358;SDS011;7263;49.418;11.064;2023-02-23T10:17:34;28.17;;;19.37;;
14358;SDS011;7263;49.418;11.064;2023-02-23T10:20:10;24.43;;;19.07;;
14358;SDS011;7263;49.418;11.064;2023-02-23T10:22:44;23.40;;;18.77;;
14358;SDS011;7263;49.418;11.064;2023-02-23T10:25:13;23.20;;;19.27;;
14358;SDS011;7263;49.418;11.064;2023-02-23T10:27:45;29.70;;;20.47;;
14358;SDS011;7263;49.418;11.064;2023-02-23T10:30:17;24.57;;;19.13;;
14358;SDS011;7263;49.418;11.064;2023-02-23T10:32:49;24.07;;;19.27;;
14358;SDS011;7263;49.418;11.064;2023-02-23T10:35:21;20.70;;;17.20;;
14358;SDS011;7263;49.418;11.064;2023-02-23T10:37:49;23.87;;;18.43;;
14358;SDS011;7263;49.418;11.064;2023-02-23T10:40:18;22.20;;;18.03;;
14358;SDS011;7263;49.418;11.064;2023-02-23T10:42:47;25.87;;;19.23;;
14358;SDS011;7263;49.418;11.064;2023-02-23T10:45:15;23.93;;;18.33;;
14358;SDS011;7263;49.418;11.064;2023-02-23T10:47:49;22.17;;;17.10;;
14358;SDS011;7263;49.418;11.064;2023-02-23T10:50:20;22.30;;;18.33;;
14358;SDS011;7263;49.418;11.064;2023-02-23T10:52:50;19.60;;;17.50;;
14358;SDS011;7263;49.418;11.064;2023-02-23T10:55:23;20.90;;;17.50;;
14358;SDS011;7263;49.418;11.064;2023-02-23T10:57:59;20.50;;;17.00;;
14358;SDS011;7263;49.418;11.064;2023-02-23T11:00:28;20.37;;;18.03;;
14358;SDS011;7263;49.418;11.064;2023-02-23T11:02:59;22.73;;;18.40;;
14358;SDS011;7263;49.418;11.064;2023-02-23T11:05:36;19.47;;;16.77;;
14358;SDS011;7263;49.418;11.064;2023-02-23T11:08:13;22.87;;;18.67;;
14358;SDS011;7263;49.418;11.064;2023-02-23T11:10:53;24.57;;;17.57;;
14358;SDS011;7263;49.418;11.064;2023-02-23T11:13:26;19.90;;;17.03;;
14358;SDS011;7263;49.418;11.064;2023-02-23T11:16:00;21.53;;;16.53;;
14358;SDS011;7263;49.418;11.064;2023-02-23T11:18:30;22.33;;;17.50;;
14358;SDS011;7263;49.418;11.064;2023-02-23T11:20:57;23.17;;;17.47;;
14358;SDS011;7263;49.418;11.064;2023-02-23T11:23:25;21.70;;;17.50;;
14358;SDS011;7263;49.418;11.064;2023-02-23T11:25:54;19.40;;;17.03;;
14358;SDS011;7263;49.418;11.064;2023-02-23T11:28:26;20.87;;;16.90;;
14358;SDS011;7263;49.418;11.064;2023-02-23T11:30:56;19.50;;;16.37;;
14358;SDS011;7263;49.418;11.064;2023-02-23T11:33:28;20.70;;;17.20;;
14358;SDS011;7263;49.418;11.064;2023-02-23T11:36:11;19.60;;;15.87;;
14358;SDS011;7263;49.418;11.064;2023-02-23T11:38:40;18.57;;;15.73;;
14358;SDS011;7263;49.418;11.064;2023-02-23T11:41:16;17.87;;;15.97;;
14358;SDS011;7263;49.418;11.064;2023-02-23T11:43:46;23.20;;;17.87;;
14358;SDS011;7263;49.418;11.064;2023-02-23T11:46:14;22.97;;;17.63;;
14358;SDS011;7263;49.418;11.064;2023-02-23T11:48:43;20.30;;;16.63;;
14358;SDS011;7263;49.418;11.064;2023-02-23T11:51:21;20.23;;;16.87;;
14358;SDS011;7263;49.418;11.064;2023-02-23T11:53:50;18.93;;;16.13;;
14358;SDS011;7263;49.418;11.064;2023-02-23T11:56:18;24.33;;;17.03;;
14358;SDS011;7263;49.418;11.064;2023-02-23T11:58:48;21.87;;;17.10;;
14358;SDS011;7263;49.418;11.064;2023-02-23T12:01:19;18.77;;;16.10;;
14358;SDS011;7263;49.418;11.064;2023-02-23T12:03:50;21.03;;;17.80;;
14358;SDS011;7263;49.418;11.064;2023-02-23T12:06:25;19.93;;;16.47;;
14358;SDS011;7263;49.418;11.064;2023-02-23T12:08:54;21.27;;;16.50;;
14358;SDS011;7263;49.418;11.064;2023-02-23T12:11:26;19.67;;;16.03;;
14358;SDS011;7263;49.418;11.064;2023-02-23T12:14:00;18.27;;;15.67;;
14358;SDS011;7263;49.418;11.064;2023-02-23T12:16:33;18.43;;;15.10;;
14358;SDS011;7263;49.418;11.064;2023-02-23T12:19:08;16.73;;;14.93;;
14358;SDS011;7263;49.418;11.064;2023-02-23T12:21:43;16.30;;;14.60;;
14358;SDS011;7263;49.418;11.064;2023-02-23T12:24:14;17.23;;;15.43;;
14358;SDS011;7263;49.418;11.064;2023-02-23T12:26:46;16.80;;;13.87;;
14358;SDS011;7263;49.418;11.064;2023-02-23T12:29:18;17.70;;;15.03;;
14358;SDS011;7263;49.418;11.064;2023-02-23T12:31:55;16.47;;;13.40;;
14358;SDS011;7263;49.418;11.064;2023-02-23T12:34:29;19.37;;;13.40;;
14358;SDS011;7263;49.418;11.064;2023-02-23T12:37:02;15.73;;;12.40;;
14358;SDS011;7263;49.418;11.064;2023-02-23T12:39:42;15.57;;;12.07;;
14358;SDS011;7263;49.418;11.064;2023-02-23T12:42:16;13.80;;;11.87;;
14358;SDS011;7263;49.418;11.064;2023-02-23T12:44:48;13.27;;;11.10;;
14358;SDS011;7263;49.418;11.064;2023-02-23T12:47:19;12.20;;;10.47;;
14358;SDS011;7263;49.418;11.064;2023-02-23T12:49:55;15.07;;;12.17;;
14358;SDS011;7263;49.418;11.064;2023-02-23T12:52:31;14.60;;;12.10;;
14358;SDS011;7263;49.418;11.064;2023-02-23T12:55:03;16.30;;;12.60;;
14358;SDS011;7263;49.418;11.064;2023-02-23T12:57:36;15.40;;;11.80;;
14358;SDS011;7263;49.418;11.064;2023-02-23T13:00:28;12.50;;;10.50;;
14358;SDS011;7263;49.418;11.064;2023-02-23T13:06:01;13.83;;;11.93;;
14358;SDS011;7263;49.418;11.064;2023-02-23T13:08:46;15.07;;;10.73;;
14358;SDS011;7263;49.418;11.064;2023-02-23T13:11:24;11.37;;;10.23;;
14358;SDS011;7263;49.418;11.064;2023-02-23T13:14:03;14.00;;;11.20;;
14358;SDS011;7263;49.418;11.064;2023-02-23T13:16:38;12.17;;;10.83;;
14358;SDS011;7263;49.418;11.064;2023-02-23T13:19:11;12.37;;;10.50;;
14358;SDS011;7263;49.418;11.064;2023-02-23T13:21:48;13.90;;;10.97;;
14358;SDS011;7263;49.418;11.064;2023-02-23T13:24:20;13.30;;;10.30;;
14358;SDS011;7263;49.418;11.064;2023-02-23T13:26:50;12.00;;;10.30;;
14358;SDS011;7263;49.418;11.064;2023-02-23T13:29:29;12.63;;;10.53;;
14358;SDS011;7263;49.418;11.064;2023-02-23T13:31:59;12.30;;;10.70;;
14358;SDS011;7263;49.418;11.064;2023-02-23T13:34:27;10.97;;;9.73;;
14358;SDS011;7263;49.418;11.064;2023-02-23T13:36:59;11.23;;;9.93;;
14358;SDS011;7263;49.418;11.064;2023-02-23T13:39:37;12.43;;;10.53;;
14358;SDS011;7263;49.418;11.064;2023-02-23T13:42:24;14.30;;;10.27;;
14358;SDS011;7263;49.418;11.064;2023-02-23T13:44:59;11.73;;;10.53;;
14358;SDS011;7263;49.418;11.064;2023-02-23T13:47:35;12.70;;;10.60;;
14358;SDS011;7263;49.418;11.064;2023-02-23T13:50:21;11.93;;;10.10;;
14358;SDS011;7263;49.418;11.064;2023-02-23T13:52:54;12.43;;;9.93;;
14358;SDS011;7263;49.418;11.064;2023-02-23T13:55:31;11.87;;;10.13;;
14358;SDS011;7263;49.418;11.064;2023-02-23T13:58:14;11.73;;;10.53;;
14358;SDS011;7263;49.418;11.064;2023-02-23T14:00:42;12.50;;;10.60;;
14358;SDS011;7263;49.418;11.064;2023-02-23T14:03:21;11.83;;;9.43;;
14358;SDS011;7263;49.418;11.064;2023-02-23T14:05:54;11.53;;;9.63;;
14358;SDS011;7263;49.418;11.064;2023-02-23T14:08:28;14.30;;;9.00;;
14358;SDS011;7263;49.418;11.064;2023-02-23T14:10:59;10.90;;;8.50;;
14358;SDS011;7263;49.418;11.064;2023-02-23T14:13:28;9.93;;;8.57;;
14358;SDS011;7263;49.418;11.064;2023-02-23T14:16:07;9.53;;;8.53;;
14358;SDS011;7263;49.418;11.064;2023-02-23T14:21:57;11.77;;;9.33;;
14358;SDS011;7263;49.418;11.064;2023-02-23T14:24:28;9.90;;;8.77;;
14358;SDS011;7263;49.418;11.064;2023-02-23T14:32:40;11.20;;;9.13;;
14358;SDS011;7263;49.418;11.064;2023-02-23T14:38:27;11.50;;;9.50;;
14358;SDS011;7263;49.418;11.064;2023-02-23T14:40:58;11.93;;;10.23;;
14358;SDS011;7263;49.418;11.064;2023-02-23T14:43:31;15.37;;;10.33;;
14358;SDS011;7263;49.418;11.064;2023-02-23T14:46:16;13.17;;;10.40;;
14358;SDS011;7263;49.418;11.064;2023-02-23T14:48:54;14.43;;;10.60;;
14358;SDS011;7263;49.418;11.064;2023-02-23T14:51:24;14.03;;;11.10;;
14358;SDS011;7263;49.418;11.064;2023-02-23T14:54:18;12.07;;;10.23;;
14358;SDS011;7263;49.418;11.064;2023-02-23T14:56:54;14.33;;;11.03;;
14358;SDS011;7263;49.418;11.064;2023-02-23T14:59:24;14.83;;;11.00;;
14358;SDS011;7263;49.418;11.064;2023-02-23T15:01:54;13.00;;;11.67;;
14358;SDS011;7263;49.418;11.064;2023-02-23T15:04:24;13.30;;;11.53;;
14358;SDS011;7263;49.418;11.064;2023-02-23T15:06:54;16.83;;;11.73;;
14358;SDS011;7263;49.418;11.064;2023-02-23T15:09:24;16.17;;;13.70;;
14358;SDS011;7263;49.418;11.064;2023-02-23T15:11:59;14.03;;;12.00;;
14358;SDS011;7263;49.418;11.064;2023-02-23T15:14:35;13.33;;;11.90;;
14358;SDS011;7263;49.418;11.064;2023-02-23T15:17:02;15.27;;;11.73;;
14358;SDS011;7263;49.418;11.064;2023-02-23T15:19:30;15.27;;;12.17;;
14358;SDS011;7263;49.418;11.064;2023-02-23T15:22:03;14.27;;;11.63;;
14358;SDS011;7263;49.418;11.064;2023-02-23T15:24:32;12.63;;;10.87;;